Terminal Aerodrome Forecast
Issued by NWS

Current Version | Previous Version | Text Only | Print | Product List | Glossary On
Versions: 1 2 3 4 5 6 7 8 9 10 11 12 13 14 15 16 17 18 19
000
FTUS46 KLOX 221740
TAFPMD
TAF
KPMD 221740Z 2218/2318 26015G25KT P6SM SCT100
     FM222200 24025G35KT P6SM VCSH SCT100
     FM230400 24015G25KT P6SM BKN050
     FM231000 23012KT P6SM BKN050
     FM231500 24015G22KT P6SM BKN250=

USA.gov is the U.S. government's official web portal to all federal, state and local government web resources and services.